Time;durP1;ratioP1;P1;durP2;ratioP2;P2;SDS_P1;SDS_P2;PMS_P1;PMS_P2;Temp;Humidity;BMP_temperature;BMP_pressure;BME280_temperature;BME280_humidity;BME280_pressure;Samples;Min_cycle;Max_cycle;Signal;HPM_P1;HPM_P2
2022/12/17 13:06:35;;;;;;;68.55;40.50;;;;;;;-2.02;100.00;102444.50;5063651;28;20117;-68
2022/12/17 13:09:05;;;;;;;67.63;39.88;;;;;;;-2.03;100.00;102440.97;5050262;28;20490;-71
2022/12/17 13:11:36;;;;;;;71.90;41.30;;;;;;;-2.04;100.00;102441.78;5066878;28;20037;-69
2022/12/17 13:14:12;;;;;;;73.22;42.33;;;;;;;-1.99;100.00;102439.56;5064024;28;20021;-70
2022/12/17 13:16:43;;;;;;;73.63;43.67;;;;;;;-1.79;100.00;102447.25;5065761;28;20036;-66
2022/12/17 13:19:33;;;;;;;68.35;41.28;;;;;;;-1.60;100.00;102440.94;5064676;28;20461;-73
2022/12/17 13:22:13;;;;;;;72.30;42.28;;;;;;;-1.74;100.00;102449.28;5059161;28;20017;-70
2022/12/17 13:24:43;;;;;;;72.15;41.92;;;;;;;-1.78;100.00;102442.94;5062358;28;20025;-68
2022/12/17 13:27:29;;;;;;;72.00;41.55;;;;;;;-1.75;100.00;102445.78;5065167;28;20031;-69
2022/12/17 13:29:54;;;;;;;69.80;41.28;;;;;;;-1.70;100.00;102447.06;5059091;28;20052;-65
2022/12/17 13:32:37;;;;;;;64.30;38.65;;;;;;;-1.78;100.00;102438.69;5066101;28;20063;-65
2022/12/17 13:35:24;;;;;;;60.80;36.97;;;;;;;-1.86;100.00;102444.03;5060787;28;20029;-65
2022/12/17 13:38:07;;;;;;;61.22;35.20;;;;;;;-2.17;100.00;102437.28;5064087;28;20045;-65
2022/12/17 13:40:57;;;;;;;65.40;37.85;;;;;;;-2.44;100.00;102438.50;5060805;28;20028;-65
2022/12/17 13:43:29;;;;;;;67.70;38.20;;;;;;;-2.52;100.00;102440.47;5063283;28;20029;-66
2022/12/17 13:45:55;;;;;;;;;;;;;;;-2.40;100.00;102440.56;5059429;28;20025;-65
2022/12/17 13:48:23;;;;;;;70.22;39.97;;;;;;;-2.59;100.00;102435.56;5065534;28;20018;-65
2022/12/17 13:51:19;;;;;;;69.55;39.17;;;;;;;-2.54;100.00;102436.84;5063664;28;20035;-65
2022/12/17 13:53:55;;;;;;;69.05;39.67;;;;;;;-2.61;100.00;102446.56;5063428;28;20021;-65
2022/12/17 13:56:29;;;;;;;74.88;41.70;;;;;;;-2.63;100.00;102449.03;5063151;28;20042;-65
2022/12/17 13:58:57;;;;;;;70.47;38.83;;;;;;;-2.60;100.00;102444.09;5058706;28;20029;-65
2022/12/17 14:01:26;;;;;;;70.70;39.90;;;;;;;-2.66;100.00;102436.72;5066037;28;20020;-65
2022/12/17 14:03:59;;;;;;;69.55;38.70;;;;;;;-2.64;100.00;102447.22;5062828;28;20544;-65
2022/12/17 14:06:31;;;;;;;68.38;38.35;;;;;;;-2.69;100.00;102446.84;5058488;28;20464;-65
2022/12/17 14:08:57;;;;;;;73.30;40.05;;;;;;;-2.67;100.00;102441.78;5058682;28;20056;-65
2022/12/17 14:14:17;;;;;;;70.53;39.83;;;;;;;-2.73;100.00;102441.28;5061172;28;20040;-65
2022/12/17 14:16:43;;;;;;;70.38;38.67;;;;;;;-2.80;100.00;102434.66;5063906;28;20044;-65
2022/12/17 14:19:09;;;;;;;74.38;40.75;;;;;;;-2.75;100.00;102443.75;5063504;28;20032;-65
2022/12/17 14:21:36;;;;;;;77.05;41.60;;;;;;;-2.66;100.00;102448.78;5063659;28;20547;-65
2022/12/17 14:24:02;;;;;;;76.30;42.20;;;;;;;-2.58;100.00;102455.47;5062255;28;20033;-65
2022/12/17 14:26:28;;;;;;;78.13;40.85;;;;;;;-2.55;100.00;102454.84;5065633;28;20032;-65
2022/12/17 14:28:54;;;;;;;75.10;40.72;;;;;;;-2.48;100.00;102454.56;5062118;28;20033;-65
2022/12/17 14:31:21;;;;;;;75.75;41.00;;;;;;;-2.49;100.00;102453.69;5064596;28;20033;-65
2022/12/17 14:33:58;;;;;;;73.60;40.35;;;;;;;-2.52;100.00;102453.44;5062264;28;20033;-65
2022/12/17 14:36:23;;;;;;;74.68;40.42;;;;;;;-2.65;100.00;102460.94;5065009;28;20115;-65
2022/12/17 14:39:00;;;;;;;72.47;40.00;;;;;;;-2.67;100.00;102465.09;5062805;28;20451;-65
2022/12/17 14:44:20;;;;;;;72.72;40.35;;;;;;;-2.72;100.00;102461.19;5061667;28;20075;-65
2022/12/17 14:46:46;;;;;;;78.63;41.10;;;;;;;-2.71;100.00;102463.00;5063260;28;20107;-66
2022/12/17 14:49:18;;;;;;;76.28;40.60;;;;;;;-2.70;100.00;102468.31;5062688;28;20099;-65
2022/12/17 14:51:44;;;;;;;79.93;41.22;;;;;;;-2.72;100.00;102468.94;5063147;28;20117;-65
2022/12/17 14:54:13;;;;;;;81.50;42.10;;;;;;;-2.79;100.00;102466.66;5062974;28;20392;-65
2022/12/17 14:56:42;;;;;;;80.22;42.30;;;;;;;-2.79;100.00;102467.56;5063837;28;20491;-65
2022/12/17 14:59:24;;;;;;;82.13;42.63;;;;;;;-2.76;100.00;102472.09;5062509;28;20071;-65
2022/12/17 15:01:52;;;;;;;79.20;41.07;;;;;;;-2.75;100.00;102479.06;5062132;28;20039;-65
2022/12/17 15:04:19;;;;;;;76.22;41.00;;;;;;;-2.88;100.00;102479.72;5063702;28;20472;-72
2022/12/17 15:06:44;;;;;;;83.20;42.80;;;;;;;-2.96;100.00;102479.06;5062966;28;20494;-66
2022/12/17 15:09:12;;;;;;;76.00;40.55;;;;;;;-2.96;100.00;102473.88;5062592;28;20033;-66
2022/12/17 15:11:37;;;;;;;76.60;40.28;;;;;;;-2.96;100.00;102484.22;5063837;28;20387;-67
2022/12/17 15:14:02;;;;;;;81.03;41.70;;;;;;;-3.00;100.00;102487.31;5061681;28;20025;-70
2022/12/17 15:16:28;;;;;;;89.03;43.67;;;;;;;-2.98;100.00;102480.63;5063471;28;20037;-72
2022/12/17 15:18:53;;;;;;;83.07;42.85;;;;;;;-2.97;100.00;102500.56;5061637;28;20094;-68
2022/12/17 15:21:19;;;;;;;87.25;42.25;;;;;;;-3.00;100.00;102498.59;5063522;28;20033;-71
2022/12/17 15:23:45;;;;;;;86.90;44.38;;;;;;;-2.99;100.00;102500.41;5062557;28;20441;-71
2022/12/17 15:26:12;;;;;;;84.60;43.10;;;;;;;-3.01;100.00;102499.38;5062547;28;20032;-72
2022/12/17 15:28:38;;;;;;;80.75;40.92;;;;;;;-3.09;100.00;102507.25;5063270;28;20399;-67
2022/12/17 15:31:03;;;;;;;82.47;41.45;;;;;;;-3.12;100.00;102504.41;5061257;28;20033;-69
2022/12/17 15:33:28;;;;;;;85.72;42.08;;;;;;;-3.12;100.00;102507.00;5064809;28;20036;-73
2022/12/17 15:35:54;;;;;;;85.40;43.10;;;;;;;-3.16;100.00;102511.91;5061337;28;20037;-73
2022/12/17 15:38:19;;;;;;;85.97;42.70;;;;;;;-3.18;100.00;102510.84;5063476;28;20159;-69
2022/12/17 15:40:44;;;;;;;84.68;43.22;;;;;;;-3.19;100.00;102515.88;5062530;28;20472;-70
2022/12/17 15:43:11;;;;;;;83.75;41.33;;;;;;;-3.23;100.00;102519.91;5062133;28;20029;-66
2022/12/17 15:45:47;;;;;;;83.57;42.58;;;;;;;-3.22;100.00;102519.16;5063071;28;20024;-66
2022/12/17 15:48:18;;;;;;;85.38;43.25;;;;;;;-3.28;100.00;102515.09;5062558;28;20024;-68
2022/12/17 15:50:43;;;;;;;81.00;41.72;;;;;;;-3.30;100.00;102517.56;5062449;28;20379;-68
2022/12/17 15:53:09;;;;;;;84.72;41.00;;;;;;;-3.31;100.00;102525.19;5060536;28;20029;-67
2022/12/17 15:55:35;;;;;;;84.32;41.90;;;;;;;-3.32;100.00;102524.25;5063649;28;20045;-71
2022/12/17 15:58:01;;;;;;;80.75;41.08;;;;;;;-3.38;100.00;102526.31;5060625;28;20029;-69
2022/12/17 16:00:26;;;;;;;83.70;41.78;;;;;;;-3.40;100.00;102536.53;5056271;28;20096;-67
2022/12/17 16:02:52;;;;;;;81.97;41.50;;;;;;;-3.50;100.00;102534.81;5063688;28;20394;-65
2022/12/17 16:05:17;;;;;;;80.32;41.25;;;;;;;-3.53;100.00;102536.22;5061771;28;20032;-65
2022/12/17 16:07:43;;;;;;;86.85;42.53;;;;;;;-3.58;100.00;102537.47;5059969;28;20040;-65
2022/12/17 16:10:10;;;;;;;85.15;42.08;;;;;;;-3.62;100.00;102544.09;5061827;28;20025;-65
2022/12/17 16:12:35;;;;;;;86.70;41.65;;;;;;;-3.62;100.00;102538.00;5062891;28;20369;-65
2022/12/17 16:15:01;;;;;;;93.18;45.03;;;;;;;-3.63;100.00;102533.59;5060920;28;20053;-67
2022/12/17 16:17:26;;;;;;;93.30;44.42;;;;;;;-3.64;100.00;102530.13;5062950;28;20029;-65
2022/12/17 16:19:52;;;;;;;93.53;43.80;;;;;;;-3.63;100.00;102531.03;5060451;28;20033;-66
2022/12/17 16:22:17;;;;;;;94.05;45.20;;;;;;;-3.64;100.00;102530.13;5063178;28;20028;-65
2022/12/17 16:24:43;;;;;;;96.10;44.25;;;;;;;-3.62;100.00;102528.56;5061847;28;20032;-67
2022/12/17 16:27:08;;;;;;;94.90;45.50;;;;;;;-3.58;100.00;102533.25;5061784;28;20017;-65
2022/12/17 16:29:34;;;;;;;94.72;44.80;;;;;;;-3.63;100.00;102529.34;5062881;28;20025;-72
2022/12/17 16:31:59;;;;;;;100.93;48.53;;;;;;;-3.61;100.00;102530.38;5060798;28;20025;-64
2022/12/17 16:34:25;;;;;;;95.40;45.65;;;;;;;-3.63;100.00;102531.91;5063758;28;20031;-65
2022/12/17 16:36:50;;;;;;;95.80;45.45;;;;;;;-3.62;100.00;102536.31;5060678;28;20021;-65
2022/12/17 16:39:18;;;;;;;91.38;44.90;;;;;;;-3.71;100.00;102533.81;5062827;28;20029;-65
2022/12/17 16:41:44;;;;;;;95.05;44.42;;;;;;;-3.76;100.00;102539.34;5061414;28;20100;-65
2022/12/17 16:44:09;;;;;;;91.57;44.20;;;;;;;-3.81;100.00;102522.56;5062057;28;20028;-65
2022/12/17 16:46:38;;;;;;;95.07;44.58;;;;;;;-3.79;100.00;102539.09;5062666;28;20025;-64
2022/12/17 16:49:15;;;;;;;90.93;43.15;;;;;;;-3.81;100.00;102540.63;5060848;28;20025;-65
2022/12/17 16:51:41;;;;;;;90.30;44.10;;;;;;;-3.82;100.00;102539.72;5061746;28;20025;-64
2022/12/17 16:54:10;;;;;;;90.05;43.70;;;;;;;-3.86;100.00;102537.63;5061572;28;20033;-65
2022/12/17 16:56:35;;;;;;;88.93;43.58;;;;;;;-3.99;100.00;102540.81;5063169;28;20186;-65
2022/12/17 16:59:03;;;;;;;96.22;44.28;;;;;;;-3.99;100.00;102551.13;5064137;28;20120;-65
2022/12/17 17:01:29;;;;;;;78.20;39.83;;;;;;;-4.03;100.00;102549.03;5067080;28;20111;-65
2022/12/17 17:03:55;;;;;;;85.40;41.20;;;;;;;-4.09;100.00;102551.97;5063530;28;20074;-65
2022/12/17 17:06:22;;;;;;;96.40;43.85;;;;;;;-4.08;100.00;102547.69;5067064;28;20035;-65
2022/12/17 17:08:48;;;;;;;93.97;44.33;;;;;;;-4.08;100.00;102540.88;5064321;28;20028;-67
2022/12/17 17:11:22;;;;;;;97.40;44.53;;;;;;;-4.09;100.00;102540.72;5065723;28;20372;-67
2022/12/17 17:13:50;;;;;;;101.85;45.72;;;;;;;-4.07;100.00;102544.34;5064396;28;20506;-67
2022/12/17 17:16:17;;;;;;;98.28;45.50;;;;;;;-4.11;100.00;102544.84;5066147;28;20383;-65
2022/12/17 17:18:42;;;;;;;98.85;45.13;;;;;;;-4.18;100.00;102547.63;5065040;28;20035;-64
2022/12/17 17:21:15;;;;;;;100.93;45.67;;;;;;;-4.23;100.00;102554.97;5063511;28;20033;-65
2022/12/17 17:23:40;;;;;;;102.15;45.58;;;;;;;-4.26;100.00;102555.59;5064863;28;20173;-64
2022/12/17 17:26:06;;;;;;;103.78;46.97;;;;;;;-4.21;100.00;102556.00;5064585;28;20532;-65
2022/12/17 17:28:32;;;;;;;101.47;45.53;;;;;;;-4.18;100.00;102561.44;5064525;28;20063;-64
2022/12/17 17:30:58;;;;;;;101.93;45.83;;;;;;;-4.20;100.00;102557.84;5063249;28;20044;-65
2022/12/17 17:33:28;;;;;;;96.65;45.90;;;;;;;-4.20;100.00;102561.31;5059450;28;20376;-65
2022/12/17 17:35:54;;;;;;;101.30;46.35;;;;;;;-4.21;100.00;102563.75;5058950;28;20029;-65
2022/12/17 17:38:19;;;;;;;101.70;46.13;;;;;;;-4.13;100.00;102562.78;5065006;28;20027;-65
2022/12/17 17:40:44;;;;;;;103.03;46.83;;;;;;;-4.09;100.00;102559.72;5064523;28;20090;-65
2022/12/17 17:43:10;;;;;;;103.20;46.67;;;;;;;-4.04;100.00;102567.88;5064531;28;20495;-65
2022/12/17 17:45:39;;;;;;;106.93;47.35;;;;;;;-4.04;100.00;102566.19;5065621;28;20052;-64
2022/12/17 17:48:04;;;;;;;103.68;46.28;;;;;;;-4.05;100.00;102560.91;5063753;28;20060;-64
2022/12/17 17:50:29;;;;;;;106.57;46.65;;;;;;;-4.02;100.00;102566.34;5065972;28;20025;-65
2022/12/17 17:52:55;;;;;;;105.60;46.65;;;;;;;-4.01;100.00;102568.16;5063088;28;20407;-65
2022/12/17 17:55:20;;;;;;;107.60;48.05;;;;;;;-3.99;100.00;102568.28;5064323;28;20524;-65
2022/12/17 17:57:45;;;;;;;105.63;47.28;;;;;;;-3.99;100.00;102570.88;5065541;28;20044;-65
2022/12/17 18:00:11;;;;;;;101.75;46.90;;;;;;;-3.98;100.00;102570.13;5063803;28;20040;-64
2022/12/17 18:02:37;;;;;;;107.35;47.67;;;;;;;-4.01;100.00;102568.16;5064403;28;20095;-65
2022/12/17 18:05:02;;;;;;;134.70;68.60;;;;;;;-4.05;100.00;102564.41;5064640;28;20060;-66
2022/12/17 18:07:27;;;;;;;103.15;45.67;;;;;;;-4.07;100.00;102567.63;5062886;28;20033;-65
2022/12/17 18:09:54;;;;;;;108.03;47.72;;;;;;;-4.07;100.00;102570.19;5065868;28;20098;-66
2022/12/17 18:15:04;;;;;;;106.68;46.53;;;;;;;-4.13;100.00;102569.66;5061792;28;20043;-64
2022/12/17 18:17:29;;;;;;;98.18;45.42;;;;;;;-4.22;100.00;102565.44;5065114;28;20028;-64
2022/12/17 18:19:54;;;;;;;99.53;44.72;;;;;;;-4.26;100.00;102571.09;5062585;28;20040;-64
2022/12/17 18:22:20;;;;;;;104.50;45.88;;;;;;;-4.26;100.00;102568.50;5065589;28;20086;-65
2022/12/17 18:24:45;;;;;;;98.70;45.22;;;;;;;-4.28;100.00;102576.88;5062707;28;20115;-64
2022/12/17 18:27:10;;;;;;;100.53;45.13;;;;;;;-4.30;100.00;102575.84;5064294;28;20476;-65
2022/12/17 18:29:36;;;;;;;101.40;47.05;;;;;;;-4.31;100.00;102574.94;5064050;28;20120;-64
2022/12/17 18:32:01;;;;;;;105.20;46.55;;;;;;;-4.28;100.00;102571.72;5063192;28;20068;-64
2022/12/17 18:34:26;;;;;;;110.60;47.80;;;;;;;-4.26;100.00;102568.50;5065040;28;20036;-65
2022/12/17 18:36:52;;;;;;;97.97;46.17;;;;;;;-4.22;100.00;102569.72;5062353;28;20095;-64
2022/12/17 18:39:20;;;;;;;113.28;45.85;;;;;;;-4.30;100.00;102584.47;5065351;28;20119;-64
2022/12/17 18:44:41;;;;;;;89.10;43.88;;;;;;;-4.34;100.00;102581.47;5060796;28;20052;-64
2022/12/17 18:47:07;;;;;;;89.68;45.63;;;;;;;-4.31;100.00;102577.53;5063335;28;20042;-64
2022/12/17 18:49:33;;;;;;;90.78;48.03;;;;;;;-4.35;100.00;102570.25;5062866;28;20078;-64
2022/12/17 18:51:58;;;;;;;95.00;48.22;;;;;;;-4.38;100.00;102568.28;5064390;28;20033;-64
2022/12/17 18:54:26;;;;;;;89.93;44.78;;;;;;;-4.35;100.00;102575.41;5061455;28;20075;-64
2022/12/17 18:56:53;;;;;;;122.85;71.93;;;;;;;-4.30;100.00;102574.16;5057859;28;20036;-64
2022/12/17 18:59:20;;;;;;;90.05;44.15;;;;;;;-4.32;100.00;102570.53;5065038;28;20055;-64
2022/12/17 19:01:47;;;;;;;86.82;43.40;;;;;;;-4.31;100.00;102581.75;5062114;28;20025;-64
2022/12/17 19:04:15;;;;;;;86.60;43.53;;;;;;;-4.28;100.00;102593.28;5064018;28;20036;-64
2022/12/17 19:06:42;;;;;;;87.57;44.83;;;;;;;-4.25;100.00;102579.72;5062570;28;20063;-65
2022/12/17 19:09:18;;;;;;;102.20;58.55;;;;;;;-4.30;100.00;102584.47;5063082;28;20542;-65
2022/12/17 19:11:43;;;;;;;102.72;42.42;;;;;;;-4.45;100.00;102583.09;5062285;28;20031;-64
2022/12/17 19:14:08;;;;;;;82.03;40.38;;;;;;;-4.49;100.00;102583.56;5063407;28;20388;-65
2022/12/17 19:16:34;;;;;;;77.05;41.22;;;;;;;-4.51;100.00;102595.41;5063330;28;20111;-64
2022/12/17 19:19:01;;;;;;;75.45;41.38;;;;;;;-4.52;100.00;102598.78;5061514;28;20029;-64
2022/12/17 19:21:31;;;;;;;75.03;40.67;;;;;;;-4.55;100.00;102594.22;5064185;28;20028;-65
2022/12/17 19:23:59;;;;;;;80.10;42.20;;;;;;;-4.58;100.00;102604.25;5061174;28;20107;-65
2022/12/17 19:26:25;;;;;;;76.82;40.55;;;;;;;-4.57;100.00;102601.81;5064614;28;20029;-65
2022/12/17 19:28:53;;;;;;;89.18;42.15;;;;;;;-4.62;100.00;102610.78;5057449;28;20021;-65
2022/12/17 19:31:19;;;;;;;87.07;40.90;;;;;;;-4.64;100.00;102599.44;5064211;28;20103;-65
2022/12/17 19:33:45;;;;;;;85.50;42.30;;;;;;;-4.64;100.00;102612.34;5061995;28;20388;-65
2022/12/17 19:36:16;;;;;;;82.78;42.00;;;;;;;-4.65;100.00;102609.63;5063065;28;20036;-64
2022/12/17 19:38:42;;;;;;;80.25;42.15;;;;;;;-4.58;100.00;102614.59;5062124;28;20386;-64
2022/12/17 19:41:10;;;;;;;84.82;42.97;;;;;;;-4.61;100.00;102616.88;5062618;28;20029;-64
2022/12/17 19:43:36;;;;;;;87.80;43.67;;;;;;;-4.62;100.00;102605.63;5062924;28;20024;-65
2022/12/17 19:46:06;;;;;;;85.35;42.33;;;;;;;-4.57;100.00;102609.56;5061758;28;20061;-64
2022/12/17 19:48:33;;;;;;;87.63;43.55;;;;;;;-4.56;100.00;102606.22;5063180;28;20036;-64
2022/12/17 19:50:59;;;;;;;90.85;44.60;;;;;;;-4.53;100.00;102607.28;5061291;28;20025;-64
2022/12/17 19:53:26;;;;;;;87.57;43.33;;;;;;;-4.52;100.00;102604.84;5064188;28;20364;-64
2022/12/17 19:56:12;;;;;;;90.88;44.78;;;;;;;-4.49;100.00;102607.69;5060536;28;20045;-64
2022/12/17 19:58:41;;;;;;;110.25;46.97;;;;;;;-4.47;100.00;102613.00;5060695;28;20424;-65
2022/12/17 20:01:13;;;;;;;95.38;46.50;;;;;;;-4.48;100.00;102609.53;5062503;28;20033;-64
2022/12/17 20:03:39;;;;;;;89.95;44.88;;;;;;;-4.45;100.00;102619.22;5062546;28;20112;-65
2022/12/17 20:06:06;;;;;;;90.57;45.67;;;;;;;-4.43;100.00;102612.53;5062567;28;20476;-64
2022/12/17 20:08:32;;;;;;;89.10;45.25;;;;;;;-4.47;100.00;102618.16;5061463;28;20047;-65
2022/12/17 20:11:00;;;;;;;86.63;43.92;;;;;;;-4.54;100.00;102629.59;5063481;28;20060;-67
2022/12/17 20:13:26;;;;;;;84.05;43.60;;;;;;;-4.50;100.00;102628.22;5059239;28;20028;-67
2022/12/17 20:16:02;;;;;;;85.63;43.70;;;;;;;-4.50;100.00;102641.13;5064251;28;20029;-67
2022/12/17 20:18:27;;;;;;;87.35;43.95;;;;;;;-4.53;100.00;102638.25;5057873;28;20472;-70
2022/12/17 20:21:00;;;;;;;88.90;45.72;;;;;;;-4.57;100.00;102637.06;5064008;28;20039;-69
2022/12/17 20:23:26;;;;;;;89.40;45.42;;;;;;;-4.61;100.00;102643.59;5057233;28;20021;-69
2022/12/17 20:26:00;;;;;;;89.57;46.03;;;;;;;-4.62;100.00;102646.94;5064393;28;20058;-70
2022/12/17 20:28:26;;;;;;;85.80;44.03;;;;;;;-4.61;100.00;102646.19;5057435;28;20033;-70
2022/12/17 20:30:54;;;;;;;84.75;44.17;;;;;;;-4.58;100.00;102638.72;5064044;28;20356;-71
2022/12/17 20:33:19;;;;;;;84.72;44.83;;;;;;;-4.58;100.00;102637.81;5064493;28;20025;-70
2022/12/17 20:35:44;;;;;;;82.60;44.72;;;;;;;-4.62;100.00;102628.88;5066859;28;20383;-70
2022/12/17 20:38:10;;;;;;;81.32;43.47;;;;;;;-4.61;100.00;102622.94;5065654;28;20059;-70
2022/12/17 20:40:38;;;;;;;76.00;41.50;;;;;;;-4.65;100.00;102626.00;5065996;28;20127;-70
2022/12/17 20:43:03;;;;;;;80.07;41.78;;;;;;;-4.72;100.00;102618.44;5066498;28;20025;-70
2022/12/17 20:45:29;;;;;;;78.57;41.47;;;;;;;-4.73;100.00;102616.66;5064545;28;20486;-69
2022/12/17 20:47:54;;;;;;;81.20;42.92;;;;;;;-4.73;100.00;102619.22;5067589;28;20399;-68
2022/12/17 20:50:19;;;;;;;79.75;42.00;;;;;;;-4.76;100.00;102608.59;5064053;28;20128;-69
2022/12/17 20:52:45;;;;;;;80.25;42.65;;;;;;;-4.72;100.00;102623.59;5066556;28;20475;-70
2022/12/17 20:55:10;;;;;;;74.13;41.17;;;;;;;-4.81;100.00;102622.75;5065212;28;20060;-71
2022/12/17 20:57:35;;;;;;;71.35;39.47;;;;;;;-4.82;100.00;102614.09;5065561;28;20048;-70
2022/12/17 21:00:01;;;;;;;72.05;40.70;;;;;;;-4.94;100.00;102610.34;5066703;28;20047;-67
2022/12/17 21:02:26;;;;;;;76.10;42.83;;;;;;;-4.99;100.00;102617.66;5064185;28;20032;-66
2022/12/17 21:04:51;;;;;;;79.43;44.70;;;;;;;-4.98;100.00;102619.47;5067180;28;20028;-66
2022/12/17 21:07:17;;;;;;;75.20;43.45;;;;;;;-5.01;100.00;102621.78;5064072;28;20040;-68
2022/12/17 21:09:42;;;;;;;70.95;39.95;;;;;;;-4.95;100.00;102624.94;5064746;28;20039;-67
2022/12/17 21:12:08;;;;;;;68.43;39.60;;;;;;;-4.94;100.00;102624.13;5065214;28;20074;-67
2022/12/17 21:14:34;;;;;;;69.55;41.00;;;;;;;-4.88;100.00;102621.25;5064857;28;20389;-68
2022/12/17 21:16:59;;;;;;;70.07;39.80;;;;;;;-4.84;100.00;102618.19;5066677;28;20066;-67
2022/12/17 21:19:26;;;;;;;69.65;41.00;;;;;;;-4.78;100.00;102625.63;5063415;28;20098;-67
2022/12/17 21:21:51;;;;;;;70.10;40.80;;;;;;;-4.80;100.00;102624.56;5059595;28;20032;-67
2022/12/17 21:24:17;;;;;;;68.05;39.40;;;;;;;-4.82;100.00;102631.25;5064922;28;20038;-67
2022/12/17 21:26:44;;;;;;;69.88;39.50;;;;;;;-4.86;100.00;102617.16;5064425;28;20111;-68
2022/12/17 21:29:10;;;;;;;69.65;39.55;;;;;;;-4.89;100.00;102629.78;5063921;28;20398;-69
2022/12/17 21:31:39;;;;;;;70.13;39.95;;;;;;;-4.91;100.00;102631.28;5065384;28;20032;-67
2022/12/17 21:34:06;;;;;;;70.80;40.33;;;;;;;-4.94;100.00;102641.31;5063064;28;20452;-67
2022/12/17 21:36:33;;;;;;;69.75;39.65;;;;;;;-4.96;100.00;102638.59;5065917;28;20047;-67
2022/12/17 21:38:59;;;;;;;72.63;39.95;;;;;;;-4.98;100.00;102640.13;5063343;28;20032;-68
2022/12/17 21:41:28;;;;;;;69.05;40.25;;;;;;;-4.98;100.00;102640.13;5066563;28;20467;-67
2022/12/17 21:43:58;;;;;;;66.97;39.85;;;;;;;-4.96;100.00;102636.00;5058854;28;20036;-66
2022/12/17 21:46:28;;;;;;;70.88;40.40;;;;;;;-5.04;100.00;102638.59;5059422;28;20063;-67
2022/12/17 21:48:55;;;;;;;68.80;40.90;;;;;;;-5.06;100.00;102643.63;5058929;28;20041;-67
2022/12/17 21:51:21;;;;;;;66.30;38.63;;;;;;;-5.12;100.00;102641.34;5066155;28;20491;-67
2022/12/17 21:53:47;;;;;;;67.20;39.03;;;;;;;-5.18;100.00;102642.47;5063827;28;20376;-67
2022/12/17 21:56:16;;;;;;;70.22;40.15;;;;;;;-5.26;100.00;102640.03;5064902;28;20102;-66
2022/12/17 21:58:43;;;;;;;71.53;40.85;;;;;;;-5.33;100.00;102647.00;5063992;28;20039;-66
2022/12/17 22:01:17;;;;;;;73.97;40.70;;;;;;;-5.43;100.00;102651.28;5064479;28;20100;-66
2022/12/17 22:03:42;;;;;;;73.55;40.25;;;;;;;-5.45;100.00;102645.06;5063736;28;20028;-67
2022/12/17 22:06:11;;;;;;;74.25;41.10;;;;;;;-5.49;100.00;102647.19;5064394;28;20035;-66
2022/12/17 22:08:37;;;;;;;70.63;41.22;;;;;;;-5.49;100.00;102657.50;5064671;28;20032;-66
2022/12/17 22:11:11;;;;;;;68.82;40.40;;;;;;;-5.54;100.00;102659.63;5063573;28;20121;-66
2022/12/17 22:16:22;;;;;;;70.40;39.40;;;;;;;-5.61;100.00;102667.50;5058617;28;20518;-67
2022/12/17 22:18:48;;;;;;;69.60;40.25;;;;;;;-5.65;100.00;102674.06;5065384;28;20089;-66
2022/12/17 22:21:13;;;;;;;67.25;39.75;;;;;;;-5.64;100.00;102673.28;5062390;28;20481;-66
2022/12/17 22:23:39;;;;;;;63.75;38.20;;;;;;;-5.66;100.00;102676.47;5063910;28;20029;-66
2022/12/17 22:26:11;;;;;;;65.97;38.72;;;;;;;-5.69;100.00;102677.06;5064766;28;20029;-66
2022/12/17 22:28:37;;;;;;;;;;;;;;;-5.74;100.00;102678.28;5064027;28;20032;-66
2022/12/17 22:33:50;;;;;;;63.92;38.63;;;;;;;-5.93;100.00;102678.09;5065575;28;20165;-67
2022/12/17 22:36:16;;;;;;;63.47;38.00;;;;;;;-5.93;100.00;102677.22;5062692;28;20107;-66
2022/12/17 22:38:41;;;;;;;66.97;39.22;;;;;;;-5.97;100.00;102670.84;5064184;28;20067;-66
2022/12/17 22:41:07;;;;;;;66.07;38.67;;;;;;;-6.09;100.00;102667.06;5064050;28;20429;-66
2022/12/17 22:43:34;;;;;;;62.70;38.45;;;;;;;-6.10;100.00;102668.75;5061640;28;20087;-66
2022/12/17 22:46:01;;;;;;;63.88;38.80;;;;;;;-6.20;100.00;102669.47;5065090;28;20040;-66
2022/12/17 22:48:28;;;;;;;64.47;38.97;;;;;;;-6.26;100.00;102660.22;5061664;28;20044;-66
2022/12/17 22:51:10;;;;;;;62.50;37.70;;;;;;;-6.37;100.00;102652.31;5040328;28;20939;-66
2022/12/17 22:53:36;;;;;;;64.03;39.35;;;;;;;-6.42;100.00;102653.53;5040885;28;20036;-66
2022/12/17 22:56:04;;;;;;;63.03;38.67;;;;;;;-6.46;100.00;102653.03;5038748;28;20382;-66
2022/12/17 22:58:30;;;;;;;66.07;40.15;;;;;;;-6.47;100.00;102649.56;5041646;28;20036;-67
2022/12/17 23:00:57;;;;;;;67.38;39.97;;;;;;;-6.45;100.00;102658.38;5038416;28;20038;-67
2022/12/17 23:03:23;;;;;;;70.57;41.10;;;;;;;-6.48;100.00;102668.31;5041609;28;20047;-67
2022/12/17 23:05:48;;;;;;;66.82;39.90;;;;;;;-6.55;100.00;102671.94;5038979;28;20476;-66
2022/12/17 23:08:13;;;;;;;65.47;38.58;;;;;;;-6.61;100.00;102672.97;5040207;28;20021;-66
2022/12/17 23:10:39;;;;;;;62.90;38.30;;;;;;;-6.75;100.00;102672.47;5040069;28;20033;-67
2022/12/17 23:13:04;;;;;;;64.75;39.63;;;;;;;-6.78;100.00;102651.56;5038627;28;20064;-70
2022/12/17 23:15:33;;;;;;;68.40;42.05;;;;;;;-6.78;100.00;102650.69;5041642;28;20025;-68
2022/12/17 23:18:00;;;;;;;72.85;41.78;;;;;;;-6.75;100.00;102636.44;5037962;28;20064;-66
2022/12/17 23:20:28;;;;;;;75.50;42.22;;;;;;;-6.78;100.00;102628.41;5037951;28;20026;-66
2022/12/17 23:22:54;;;;;;;77.65;43.63;;;;;;;-6.82;100.00;102639.16;5041294;28;20105;-70
2022/12/17 23:25:20;;;;;;;76.03;43.83;;;;;;;-6.80;100.00;102637.66;5038751;28;20474;-66
2022/12/17 23:27:46;;;;;;;72.78;42.13;;;;;;;-6.85;100.00;102633.69;5039918;28;20037;-66
2022/12/17 23:30:13;;;;;;;69.70;40.50;;;;;;;-6.95;100.00;102641.22;5039623;28;20033;-66
2022/12/17 23:32:39;;;;;;;68.03;39.88;;;;;;;-7.03;100.00;102635.28;5038942;28;20030;-68
2022/12/17 23:35:05;;;;;;;66.43;40.25;;;;;;;-7.09;100.00;102638.13;5040431;28;20029;-66
2022/12/17 23:37:30;;;;;;;65.90;39.78;;;;;;;-7.11;100.00;102643.84;5037650;28;20493;-66
2022/12/17 23:39:56;;;;;;;65.93;39.70;;;;;;;-7.14;100.00;102649.56;5040996;28;20033;-70
2022/12/17 23:42:21;;;;;;;66.03;39.95;;;;;;;-7.15;100.00;102642.59;5037938;28;20025;-66
2022/12/17 23:44:46;;;;;;;64.15;39.88;;;;;;;-7.21;100.00;102654.81;5039873;28;20045;-67
2022/12/17 23:47:12;;;;;;;65.05;40.13;;;;;;;-7.15;100.00;102649.41;5039089;28;20025;-66
2022/12/17 23:49:37;;;;;;;68.53;39.50;;;;;;;-7.16;100.00;102650.16;5037857;28;20053;-65
2022/12/17 23:52:02;;;;;;;69.00;41.17;;;;;;;-7.14;100.00;102641.84;5040538;28;20037;-66
2022/12/17 23:54:28;;;;;;;68.70;41.83;;;;;;;-7.10;100.00;102659.44;5037279;28;20060;-66
2022/12/17 23:56:53;;;;;;;68.35;40.28;;;;;;;-7.04;100.00;102662.63;5039178;28;20033;-65
2022/12/17 23:59:18;;;;;;;69.63;40.78;;;;;;;-7.07;100.00;102662.31;5038243;28;20044;-66
